createdAt,value
2022-11-29T00:01:41.594Z,26.80
2022-11-29T00:04:09.773Z,25.40
2022-11-29T00:06:38.573Z,25.40
2022-11-29T00:09:11.745Z,23.90
2022-11-29T00:12:00.852Z,24.10
2022-11-29T00:14:29.907Z,24.30
2022-11-29T00:17:04.768Z,20.80
2022-11-29T00:19:35.921Z,24.50
2022-11-29T00:22:04.984Z,21.70
2022-11-29T00:24:33.364Z,25.60
2022-11-29T00:27:01.743Z,26.40
2022-11-29T00:29:30.729Z,26.20
2022-11-29T00:31:59.723Z,24.50
2022-11-29T00:34:28.309Z,21.30
2022-11-29T00:36:56.786Z,27.70
2022-11-29T00:39:25.057Z,25.20
2022-11-29T00:41:53.346Z,21.00
2022-11-29T00:44:21.820Z,21.40
2022-11-29T00:46:50.013Z,23.30
2022-11-29T00:49:18.474Z,28.40
2022-11-29T00:51:47.457Z,26.40
2022-11-29T00:54:17.382Z,22.90
2022-11-29T00:56:45.670Z,22.70
2022-11-29T00:59:13.821Z,24.30
2022-11-29T01:01:42.872Z,26.50
2022-11-29T01:04:11.160Z,26.10
2022-11-29T01:06:39.382Z,26.00
2022-11-29T01:09:07.659Z,23.40
2022-11-29T01:11:36.348Z,26.10
2022-11-29T01:14:05.126Z,27.30
2022-11-29T01:16:33.999Z,23.60
2022-11-29T01:19:02.819Z,23.90
2022-11-29T01:21:31.613Z,23.50
2022-11-29T01:24:00.393Z,28.30
2022-11-29T01:26:30.518Z,25.50
2022-11-29T01:28:59.654Z,26.20
2022-11-29T01:31:36.515Z,24.60
2022-11-29T01:34:06.243Z,23.70
2022-11-29T01:36:35.493Z,21.70
2022-11-29T01:39:05.883Z,21.60
2022-11-29T01:41:36.490Z,26.90
2022-11-29T01:44:13.851Z,24.10
2022-11-29T01:46:45.122Z,27.50
2022-11-29T01:49:17.699Z,19.10
2022-11-29T01:51:51.129Z,23.90
2022-11-29T01:54:20.362Z,21.80
2022-11-29T01:56:50.653Z,25.00
2022-11-29T01:59:25.146Z,24.70
2022-11-29T02:01:58.400Z,27.20
2022-11-29T02:04:27.427Z,21.10
2022-11-29T02:06:55.706Z,25.10
2022-11-29T02:09:24.022Z,26.30
2022-11-29T02:11:55.338Z,24.20
2022-11-29T02:14:30.774Z,25.00
2022-11-29T02:17:37.740Z,27.00
2022-11-29T02:20:44.134Z,24.40
2022-11-29T02:23:22.810Z,25.90
2022-11-29T02:26:03.850Z,26.60
2022-11-29T02:28:50.210Z,28.10
2022-11-29T02:31:37.158Z,25.60
2022-11-29T02:34:08.587Z,27.70
2022-11-29T02:36:50.379Z,23.60
2022-11-29T02:39:37.490Z,26.00
2022-11-29T02:42:30.121Z,22.70
2022-11-29T02:45:10.373Z,23.90
2022-11-29T02:47:50.659Z,23.90
2022-11-29T02:50:23.801Z,25.90
2022-11-29T02:53:06.476Z,23.50
2022-11-29T02:55:44.990Z,22.80
2022-11-29T02:58:34.369Z,25.50
2022-11-29T03:01:24.800Z,24.70
2022-11-29T03:04:08.852Z,23.00
2022-11-29T03:06:46.905Z,23.30
2022-11-29T03:09:45.425Z,24.30
2022-11-29T03:12:26.973Z,27.90
2022-11-29T03:15:15.743Z,27.80
2022-11-29T03:18:01.378Z,21.70
2022-11-29T03:20:47.814Z,24.30
2022-11-29T03:23:23.984Z,31.50
2022-11-29T03:26:04.035Z,24.70
2022-11-29T03:29:07.476Z,27.70
2022-11-29T03:32:01.620Z,25.90
2022-11-29T03:34:55.790Z,27.80
2022-11-29T03:37:29.932Z,24.10
2022-11-29T03:40:14.677Z,24.90
2022-11-29T03:42:55.350Z,26.90
2022-11-29T03:45:38.898Z,27.50
2022-11-29T03:48:25.371Z,27.20
2022-11-29T03:51:16.699Z,25.00
2022-11-29T03:54:10.580Z,26.00
2022-11-29T03:56:43.834Z,27.00
2022-11-29T03:59:24.528Z,25.00
2022-11-29T04:02:11.293Z,27.90
2022-11-29T04:04:55.192Z,22.40
2022-11-29T04:07:35.578Z,26.40
2022-11-29T04:10:27.471Z,24.20
2022-11-29T04:12:58.542Z,27.70
2022-11-29T04:16:05.421Z,28.00
2022-11-29T04:18:52.402Z,28.10
2022-11-29T04:21:31.018Z,27.30
2022-11-29T04:24:27.421Z,23.50
2022-11-29T04:27:23.934Z,26.90
2022-11-29T04:30:14.724Z,28.60
2022-11-29T04:33:16.466Z,28.90
2022-11-29T04:35:50.785Z,26.10
2022-11-29T04:38:48.261Z,22.80
2022-11-29T04:41:46.122Z,26.70
2022-11-29T04:44:37.748Z,24.70
2022-11-29T04:47:33.905Z,24.40
2022-11-29T04:50:21.307Z,26.70
2022-11-29T04:53:21.010Z,24.80
2022-11-29T04:56:09.463Z,25.80
2022-11-29T04:58:53.509Z,25.00
2022-11-29T05:01:43.262Z,30.40
2022-11-29T05:04:25.276Z,26.30
2022-11-29T05:07:04.209Z,23.30
2022-11-29T05:09:32.438Z,24.30
2022-11-29T05:12:10.703Z,25.10
2022-11-29T05:14:42.458Z,25.40
2022-11-29T05:17:48.658Z,23.00
2022-11-29T05:20:43.017Z,23.50
2022-11-29T05:23:37.746Z,21.90
2022-11-29T05:26:27.385Z,21.30
2022-11-29T05:29:11.434Z,24.90
2022-11-29T05:31:56.656Z,24.50
2022-11-29T05:34:55.396Z,26.60
2022-11-29T05:37:57.666Z,24.30
2022-11-29T05:40:49.704Z,23.30
2022-11-29T05:43:55.565Z,27.60
2022-11-29T05:46:34.215Z,23.10
2022-11-29T05:49:21.197Z,22.70
2022-11-29T05:52:06.164Z,22.80
2022-11-29T05:54:42.443Z,23.00
2022-11-29T05:57:19.705Z,24.00
2022-11-29T05:59:51.619Z,21.20
2022-11-29T06:02:29.642Z,21.00
2022-11-29T06:05:32.877Z,21.70
2022-11-29T06:08:19.283Z,28.60
2022-11-29T06:11:14.282Z,19.00
2022-11-29T06:13:55.568Z,20.00
2022-11-29T06:16:44.553Z,19.60
2022-11-29T06:19:22.281Z,19.80
2022-11-29T06:22:24.504Z,24.20
2022-11-29T06:25:08.438Z,23.30
2022-11-29T06:28:07.334Z,19.60
2022-11-29T06:31:12.549Z,20.20
2022-11-29T06:34:02.717Z,21.60
2022-11-29T06:36:43.003Z,18.80
2022-11-29T06:39:11.856Z,19.40
2022-11-29T06:41:40.411Z,19.70
2022-11-29T06:44:10.576Z,19.60
2022-11-29T06:46:49.719Z,15.80
2022-11-29T06:49:39.360Z,19.70
2022-11-29T06:52:37.319Z,17.50
2022-11-29T06:55:32.550Z,20.80
2022-11-29T06:58:03.995Z,19.30
2022-11-29T07:01:05.148Z,18.10
2022-11-29T07:03:55.015Z,18.80
2022-11-29T07:06:28.957Z,20.80
2022-11-29T07:09:14.194Z,14.30
2022-11-29T07:11:43.494Z,19.40
2022-11-29T07:14:12.483Z,21.20
2022-11-29T07:17:03.635Z,21.60
2022-11-29T07:19:32.421Z,22.80
2022-11-29T07:22:26.985Z,22.40
2022-11-29T07:25:20.468Z,20.40
2022-11-29T07:28:33.294Z,21.60
2022-11-29T07:31:02.675Z,22.10
2022-11-29T07:33:43.166Z,23.20
2022-11-29T07:36:18.803Z,18.50
2022-11-29T07:38:56.130Z,18.10
2022-11-29T07:41:38.731Z,17.20
2022-11-29T07:44:16.096Z,21.30
2022-11-29T07:46:44.845Z,21.50
2022-11-29T07:49:13.580Z,16.10
2022-11-29T07:51:42.212Z,19.00
2022-11-29T07:54:15.853Z,18.20
2022-11-29T07:56:44.135Z,20.20
2022-11-29T07:59:13.288Z,17.50
2022-11-29T08:01:42.168Z,14.00
2022-11-29T08:04:10.589Z,19.70
2022-11-29T08:06:39.360Z,19.60
2022-11-29T08:09:07.861Z,19.70
2022-11-29T08:11:36.341Z,23.80
2022-11-29T08:14:06.998Z,22.40
2022-11-29T08:16:36.213Z,18.50
2022-11-29T08:19:05.381Z,17.90
2022-11-29T08:21:33.856Z,19.40
2022-11-29T08:24:02.244Z,18.40
2022-11-29T08:26:31.778Z,21.00
2022-11-29T08:29:00.330Z,20.80
2022-11-29T08:31:28.750Z,22.70
2022-11-29T08:33:56.988Z,19.90
2022-11-29T08:36:25.669Z,19.90
2022-11-29T08:39:02.249Z,19.50
2022-11-29T08:41:34.566Z,19.20
2022-11-29T08:44:04.749Z,14.90
2022-11-29T08:46:51.954Z,16.20
2022-11-29T08:49:20.224Z,21.60
2022-11-29T08:51:48.403Z,20.50
2022-11-29T08:54:16.689Z,13.00
2022-11-29T08:57:37.277Z,20.80
2022-11-29T08:59:34.385Z,14.80
2022-11-29T09:02:03.062Z,15.40
2022-11-29T09:04:31.589Z,20.20
2022-11-29T09:06:59.967Z,23.10
2022-11-29T09:09:28.234Z,19.00
2022-11-29T09:11:56.727Z,14.70
2022-11-29T09:14:26.081Z,16.50
2022-11-29T09:16:54.626Z,17.30
2022-11-29T09:19:23.111Z,18.10
2022-11-29T09:21:51.645Z,18.80
2022-11-29T09:24:20.955Z,20.00
2022-11-29T09:26:49.562Z,20.90
2022-11-29T09:29:18.136Z,21.80
2022-11-29T09:31:46.643Z,17.20
2022-11-29T09:34:16.926Z,18.90
2022-11-29T09:36:45.625Z,18.30
2022-11-29T09:39:14.309Z,21.70
2022-11-29T09:41:51.902Z,21.00
2022-11-29T09:44:32.588Z,19.30
2022-11-29T09:47:12.525Z,23.80
2022-11-29T09:49:46.851Z,18.10
2022-11-29T09:52:25.666Z,21.90
2022-11-29T09:55:02.815Z,16.00
2022-11-29T09:57:32.772Z,18.10
2022-11-29T10:00:16.712Z,18.00
2022-11-29T10:02:50.807Z,22.50
2022-11-29T10:05:34.069Z,21.60
2022-11-29T10:08:15.461Z,21.10
2022-11-29T10:10:48.273Z,16.00
2022-11-29T10:13:29.923Z,17.60
2022-11-29T10:16:11.154Z,21.20
2022-11-29T10:18:56.283Z,21.80
2022-11-29T10:21:32.123Z,21.00
2022-11-29T10:24:23.350Z,21.70
2022-11-29T10:26:51.835Z,18.70
2022-11-29T10:29:20.330Z,19.30
2022-11-29T10:31:49.772Z,21.70
2022-11-29T10:34:24.355Z,19.50
2022-11-29T10:37:03.131Z,22.30
2022-11-29T10:40:04.603Z,16.50
2022-11-29T10:43:03.147Z,17.60
2022-11-29T10:45:35.457Z,15.30
2022-11-29T10:48:12.269Z,18.90
2022-11-29T10:50:44.338Z,17.60
2022-11-29T10:53:18.533Z,22.60
2022-11-29T10:55:51.934Z,20.90
2022-11-29T10:58:28.348Z,22.80
2022-11-29T11:01:01.206Z,21.80
2022-11-29T11:03:36.820Z,20.20
2022-11-29T11:06:17.392Z,19.20
2022-11-29T11:08:53.654Z,15.90
2022-11-29T11:11:32.893Z,20.80
2022-11-29T11:14:17.329Z,28.10
2022-11-29T11:16:45.745Z,22.20
2022-11-29T11:19:33.874Z,20.10
2022-11-29T11:22:04.594Z,24.00
2022-11-29T11:24:38.928Z,22.20
2022-11-29T11:27:07.944Z,19.80
2022-11-29T11:29:36.934Z,19.50
2022-11-29T11:32:15.769Z,17.80
2022-11-29T11:34:57.836Z,20.30
2022-11-29T11:37:34.253Z,23.80
2022-11-29T11:40:29.376Z,21.10
2022-11-29T11:43:02.171Z,21.10
2022-11-29T11:45:35.493Z,19.90
2022-11-29T11:48:17.196Z,20.30
2022-11-29T11:50:53.023Z,22.60
2022-11-29T11:53:24.484Z,19.20
2022-11-29T11:56:00.722Z,21.30
2022-11-29T11:58:32.918Z,19.50
2022-11-29T12:01:37.778Z,22.20
2022-11-29T12:04:27.663Z,20.50
2022-11-29T12:07:13.878Z,22.80
2022-11-29T12:09:49.882Z,20.50
2022-11-29T12:12:33.358Z,19.40
2022-11-29T12:15:18.874Z,18.60
2022-11-29T12:18:06.176Z,18.80
2022-11-29T12:20:58.651Z,17.40
2022-11-29T12:24:01.077Z,17.30
2022-11-29T12:26:58.614Z,18.10
2022-11-29T12:29:32.880Z,19.50
2022-11-29T12:32:19.531Z,18.70
2022-11-29T12:34:51.601Z,18.90
2022-11-29T12:37:48.931Z,17.90
2022-11-29T12:40:37.192Z,16.80
2022-11-29T12:43:18.882Z,18.10
2022-11-29T12:46:15.431Z,16.00
2022-11-29T12:49:10.958Z,17.20
2022-11-29T12:52:00.804Z,19.00
2022-11-29T12:54:38.865Z,16.20
2022-11-29T12:57:28.760Z,16.90
2022-11-29T13:00:17.557Z,18.90
2022-11-29T13:03:11.803Z,18.50
2022-11-29T13:06:12.377Z,18.00
2022-11-29T13:08:44.522Z,18.50
2022-11-29T13:11:28.354Z,18.30
2022-11-29T13:14:34.645Z,18.30
2022-11-29T13:17:03.714Z,20.30
2022-11-29T13:19:42.942Z,18.50
2022-11-29T13:22:19.603Z,20.90
2022-11-29T13:24:57.794Z,17.40
2022-11-29T13:27:37.561Z,18.30
2022-11-29T13:30:07.415Z,18.80
2022-11-29T13:33:15.065Z,19.90
2022-11-29T13:35:54.463Z,17.50
2022-11-29T13:38:44.053Z,18.60
2022-11-29T13:41:32.292Z,20.50
2022-11-29T13:44:17.013Z,19.70
2022-11-29T13:47:07.451Z,19.70
2022-11-29T13:50:04.181Z,19.80
2022-11-29T13:52:48.312Z,19.70
2022-11-29T13:55:29.771Z,19.90
2022-11-29T13:58:18.065Z,19.60
2022-11-29T14:00:47.952Z,19.50
2022-11-29T14:03:38.832Z,17.60
2022-11-29T14:06:37.022Z,18.00
2022-11-29T14:09:19.417Z,20.10
2022-11-29T14:12:01.932Z,18.70
2022-11-29T14:14:50.542Z,19.40
2022-11-29T14:17:55.820Z,20.60
2022-11-29T14:20:31.269Z,31.60
2022-11-29T14:23:05.990Z,24.30
2022-11-29T14:25:56.221Z,43.00
2022-11-29T14:28:34.688Z,22.80
2022-11-29T14:31:05.736Z,20.20
2022-11-29T14:33:52.345Z,24.90
2022-11-29T14:36:30.356Z,25.40
2022-11-29T14:39:04.890Z,23.60
2022-11-29T14:41:54.057Z,26.20
2022-11-29T14:44:32.166Z,22.50
2022-11-29T14:47:51.033Z,23.80
2022-11-29T14:50:37.519Z,24.10
2022-11-29T14:53:27.718Z,23.80
2022-11-29T14:56:31.940Z,22.90
2022-11-29T14:59:38.799Z,21.80
2022-11-29T15:02:32.788Z,24.60
2022-11-29T15:05:46.851Z,22.80
2022-11-29T15:08:52.833Z,24.50
2022-11-29T15:11:36.938Z,24.30
2022-11-29T15:14:12.889Z,28.00
2022-11-29T15:16:45.067Z,26.10
2022-11-29T15:19:31.907Z,31.20
2022-11-29T15:22:43.985Z,33.00
2022-11-29T15:25:17.672Z,26.00
2022-11-29T15:27:54.940Z,28.70
2022-11-29T15:30:33.896Z,24.20
2022-11-29T15:33:09.333Z,28.20
2022-11-29T15:35:38.317Z,26.80
2022-11-29T15:38:07.069Z,27.60
2022-11-29T15:40:37.698Z,26.80
2022-11-29T15:43:06.812Z,26.90
2022-11-29T15:45:38.255Z,27.10
2022-11-29T15:48:16.347Z,28.00
2022-11-29T15:51:07.933Z,25.40
2022-11-29T15:53:41.536Z,24.90
2022-11-29T15:56:22.284Z,25.60
2022-11-29T15:58:58.085Z,29.20
2022-11-29T16:01:29.881Z,26.20
2022-11-29T16:04:01.958Z,25.50
2022-11-29T16:06:45.057Z,25.80
2022-11-29T16:09:24.043Z,24.60
2022-11-29T16:11:53.649Z,26.40
2022-11-29T16:14:26.763Z,25.80
2022-11-29T16:17:01.131Z,23.00
2022-11-29T16:19:33.100Z,24.40
2022-11-29T16:22:11.103Z,24.30
2022-11-29T16:24:48.485Z,25.50
2022-11-29T16:27:20.443Z,23.60
2022-11-29T16:29:53.278Z,25.90
2022-11-29T16:32:30.125Z,25.30
2022-11-29T16:35:34.947Z,25.90
2022-11-29T16:38:05.778Z,25.20
2022-11-29T16:40:36.978Z,26.40
2022-11-29T16:43:43.351Z,25.00
2022-11-29T16:46:23.517Z,23.90
2022-11-29T16:48:56.543Z,25.60
2022-11-29T16:51:32.782Z,25.40
2022-11-29T16:54:29.393Z,30.20
2022-11-29T16:57:00.328Z,27.50
2022-11-29T16:59:30.473Z,27.00
2022-11-29T17:01:59.739Z,30.50
2022-11-29T17:04:29.889Z,29.60
2022-11-29T17:07:00.503Z,30.00
2022-11-29T17:09:35.628Z,31.30
2022-11-29T17:12:07.649Z,31.00
2022-11-29T17:14:37.564Z,29.30
2022-11-29T17:17:08.739Z,29.60
2022-11-29T17:19:39.488Z,30.70
2022-11-29T17:22:10.985Z,29.40
2022-11-29T17:24:47.732Z,32.40
2022-11-29T17:27:20.310Z,32.60
2022-11-29T17:29:52.757Z,30.20
2022-11-29T17:32:26.694Z,32.30
2022-11-29T17:34:57.115Z,29.70
2022-11-29T17:37:26.857Z,32.20
2022-11-29T17:39:57.594Z,32.90
2022-11-29T17:42:28.624Z,32.10
2022-11-29T17:44:58.320Z,34.80
2022-11-29T17:47:28.289Z,29.80
2022-11-29T17:49:59.277Z,33.90
2022-11-29T17:52:28.934Z,27.80
2022-11-29T17:54:58.450Z,25.70
2022-11-29T17:57:27.413Z,29.90
2022-11-29T17:59:56.188Z,30.90
2022-11-29T18:02:25.154Z,30.60
2022-11-29T18:04:53.870Z,28.20
2022-11-29T18:07:22.338Z,27.30
2022-11-29T18:09:51.237Z,24.70
2022-11-29T18:12:20.436Z,27.70
2022-11-29T18:14:52.405Z,26.00
2022-11-29T18:17:24.423Z,26.40
2022-11-29T18:19:56.417Z,22.70
2022-11-29T18:22:27.876Z,26.70
2022-11-29T18:25:10.008Z,26.10
2022-11-29T18:27:46.355Z,25.60
2022-11-29T18:30:17.495Z,23.90
2022-11-29T18:32:46.394Z,24.10
2022-11-29T18:35:15.953Z,24.70
2022-11-29T18:38:13.627Z,24.90
2022-11-29T18:40:35.001Z,25.40
2022-11-29T18:43:05.165Z,25.00
2022-11-29T18:45:38.184Z,24.60
2022-11-29T18:48:08.235Z,23.40
2022-11-29T18:50:49.310Z,22.50
2022-11-29T18:53:18.799Z,24.00
2022-11-29T18:55:49.283Z,22.60
2022-11-29T18:58:18.651Z,23.10
2022-11-29T19:00:48.424Z,22.60
2022-11-29T19:03:18.707Z,25.70
2022-11-29T19:05:54.824Z,22.50
2022-11-29T19:08:24.655Z,24.70
2022-11-29T19:10:54.086Z,24.60
2022-11-29T19:13:23.402Z,22.40
2022-11-29T19:15:56.303Z,23.70
2022-11-29T19:18:26.117Z,19.30
2022-11-29T19:21:15.006Z,21.60
2022-11-29T19:23:46.885Z,14.60
2022-11-29T19:26:16.908Z,26.70
2022-11-29T19:28:47.632Z,26.00
2022-11-29T19:31:19.261Z,26.90
2022-11-29T19:33:49.089Z,29.00
2022-11-29T19:36:30.375Z,26.80
2022-11-29T19:39:04.319Z,27.50
2022-11-29T19:41:35.375Z,28.70
2022-11-29T19:44:08.816Z,26.00
2022-11-29T19:46:41.987Z,26.00
2022-11-29T19:49:11.552Z,24.80
2022-11-29T19:51:41.932Z,23.30
2022-11-29T19:54:12.278Z,22.60
2022-11-29T19:56:41.919Z,23.90
2022-11-29T19:59:11.431Z,22.70
2022-11-29T20:01:42.275Z,26.20
2022-11-29T20:04:14.435Z,28.50
2022-11-29T20:06:45.104Z,21.40
2022-11-29T20:09:14.297Z,22.30
2022-11-29T20:11:44.615Z,22.70
2022-11-29T20:14:14.895Z,21.70
2022-11-29T20:16:45.107Z,24.10
2022-11-29T20:19:17.337Z,21.60
2022-11-29T20:21:49.352Z,21.10
2022-11-29T20:24:19.732Z,21.70
2022-11-29T20:26:50.401Z,20.40
2022-11-29T20:29:20.374Z,20.40
2022-11-29T20:31:51.102Z,22.50
2022-11-29T20:34:20.517Z,19.60
2022-11-29T20:36:49.839Z,21.40
2022-11-29T20:39:50.138Z,23.90
2022-11-29T20:42:38.239Z,23.70
2022-11-29T20:45:11.290Z,26.40
2022-11-29T20:47:52.553Z,28.10
2022-11-29T20:50:29.972Z,27.10
2022-11-29T20:53:30.755Z,27.30
2022-11-29T20:56:05.697Z,25.00
2022-11-29T20:58:35.297Z,29.40
2022-11-29T21:01:05.233Z,28.90
2022-11-29T21:03:33.723Z,32.90
2022-11-29T21:06:04.642Z,34.90
2022-11-29T21:08:33.940Z,36.90
2022-11-29T21:11:09.637Z,32.90
2022-11-29T21:13:39.501Z,35.90
2022-11-29T21:16:11.982Z,38.40
2022-11-29T21:18:41.470Z,43.00
2022-11-29T21:21:26.395Z,42.60
2022-11-29T21:24:09.732Z,38.30
2022-11-29T21:26:44.720Z,36.20
2022-11-29T21:29:18.798Z,37.10
2022-11-29T21:31:53.546Z,32.00
2022-11-29T21:34:22.809Z,38.70
2022-11-29T21:37:00.004Z,35.70
2022-11-29T21:39:38.213Z,41.50
2022-11-29T21:42:06.843Z,42.80
2022-11-29T21:44:35.537Z,40.60
2022-11-29T21:47:04.417Z,44.70
2022-11-29T21:49:32.990Z,45.50
2022-11-29T21:52:02.536Z,46.50
2022-11-29T21:54:33.380Z,36.60
2022-11-29T21:57:03.407Z,46.70
2022-11-29T21:59:32.826Z,46.10
2022-11-29T22:02:03.370Z,50.10
2022-11-29T22:04:32.577Z,47.30
2022-11-29T22:07:01.149Z,49.40
2022-11-29T22:09:30.965Z,52.60
2022-11-29T22:12:00.053Z,51.50
2022-11-29T22:14:28.560Z,53.90
2022-11-29T22:17:00.199Z,53.00
2022-11-29T22:19:31.757Z,52.70
2022-11-29T22:22:03.292Z,58.50
2022-11-29T22:24:35.267Z,59.90
2022-11-29T22:27:03.947Z,58.40
2022-11-29T22:29:32.434Z,56.40
2022-11-29T22:32:01.534Z,60.90
2022-11-29T22:34:29.869Z,64.70
2022-11-29T22:36:58.485Z,63.50
2022-11-29T22:39:28.526Z,64.80
2022-11-29T22:41:58.322Z,57.70
2022-11-29T22:44:27.121Z,60.40
2022-11-29T22:46:55.886Z,61.00
2022-11-29T22:49:24.994Z,65.70
2022-11-29T22:51:53.807Z,61.60
2022-11-29T22:54:22.261Z,61.40
2022-11-29T22:56:50.744Z,64.80
2022-11-29T22:59:19.122Z,56.60
2022-11-29T23:01:47.544Z,62.30
2022-11-29T23:04:16.094Z,62.50
2022-11-29T23:06:45.909Z,61.60
2022-11-29T23:09:17.136Z,60.50
2022-11-29T23:11:46.745Z,57.10
2022-11-29T23:14:14.915Z,61.20
2022-11-29T23:16:43.328Z,59.90
2022-11-29T23:19:12.505Z,58.70
2022-11-29T23:21:42.002Z,64.40
2022-11-29T23:24:10.412Z,56.90
2022-11-29T23:26:41.845Z,66.80
2022-11-29T23:29:13.598Z,66.60
2022-11-29T23:31:42.252Z,54.60
2022-11-29T23:34:10.853Z,55.10
2022-11-29T23:36:39.358Z,57.10
2022-11-29T23:39:07.734Z,60.30
2022-11-29T23:41:37.231Z,58.10
2022-11-29T23:44:06.587Z,55.70
2022-11-29T23:46:35.423Z,57.70
2022-11-29T23:49:04.321Z,63.80
2022-11-29T23:51:32.489Z,53.40
2022-11-29T23:54:00.769Z,55.40
2022-11-29T23:56:29.047Z,56.60
2022-11-29T23:58:58.240Z,61.50
